createdAt,value
2023-04-25T00:00:41.548Z,40.84
2023-04-25T00:01:41.544Z,40.89
2023-04-25T00:02:41.640Z,40.89
2023-04-25T00:03:41.658Z,40.89
2023-04-25T00:04:41.626Z,40.90
2023-04-25T00:05:41.538Z,40.91
2023-04-25T00:06:41.501Z,40.91
2023-04-25T00:07:41.510Z,40.91
2023-04-25T00:08:41.504Z,40.92
2023-04-25T00:09:41.500Z,40.95
2023-04-25T00:10:41.530Z,40.90
2023-04-25T00:11:41.625Z,40.90
2023-04-25T00:12:41.619Z,40.91
2023-04-25T00:13:41.681Z,40.92
2023-04-25T00:14:41.759Z,40.86
2023-04-25T00:15:41.853Z,40.84
2023-04-25T00:16:41.850Z,40.91
2023-04-25T00:17:41.944Z,40.87
2023-04-25T00:18:41.950Z,40.85
2023-04-25T00:19:41.992Z,40.91
2023-04-25T00:20:42.053Z,40.94
2023-04-25T00:21:42.112Z,40.95
2023-04-25T00:22:42.158Z,40.92
2023-04-25T00:23:42.210Z,40.90
2023-04-25T00:24:42.261Z,40.88
2023-04-25T00:25:42.317Z,40.84
2023-04-25T00:26:42.364Z,40.87
2023-04-25T00:27:42.404Z,40.86
2023-04-25T00:28:42.473Z,40.88
2023-04-25T00:29:42.525Z,40.88
2023-04-25T00:30:42.557Z,40.89
2023-04-25T00:31:42.692Z,40.83
2023-04-25T00:32:42.696Z,40.83
2023-04-25T00:33:42.709Z,40.85
2023-04-25T00:34:42.775Z,40.88
2023-04-25T00:35:42.826Z,40.89
2023-04-25T00:36:42.873Z,40.85
2023-04-25T00:37:42.925Z,40.80
2023-04-25T00:38:42.975Z,40.83
2023-04-25T00:39:43.033Z,40.86
2023-04-25T00:40:43.057Z,40.89
2023-04-25T00:41:43.100Z,40.87
2023-04-25T00:42:43.167Z,40.88
2023-04-25T00:43:43.264Z,40.87
2023-04-25T00:44:43.296Z,40.83
2023-04-25T00:45:43.333Z,40.89
2023-04-25T00:46:43.356Z,40.86
2023-04-25T00:47:43.467Z,40.88
2023-04-25T00:48:43.412Z,40.85
2023-04-25T00:49:43.467Z,40.90
2023-04-25T00:50:43.516Z,40.82
2023-04-25T00:51:43.581Z,40.93
2023-04-25T00:52:43.603Z,40.91
2023-04-25T00:53:43.663Z,40.89
2023-04-25T00:54:43.714Z,40.91
2023-04-25T00:55:43.765Z,40.91
2023-04-25T00:56:43.815Z,40.90
2023-04-25T00:57:43.871Z,40.85
2023-04-25T00:58:43.912Z,40.93
2023-04-25T00:59:43.968Z,40.90
2023-04-25T01:00:44.056Z,40.95
2023-04-25T01:01:45.166Z,40.93
2023-04-25T01:02:44.332Z,40.94
2023-04-25T01:03:44.292Z,40.94
2023-04-25T01:04:44.119Z,40.98
2023-04-25T01:05:44.116Z,40.96
2023-04-25T01:06:44.107Z,40.96
2023-04-25T01:07:44.130Z,40.95
2023-04-25T01:08:44.108Z,40.93
2023-04-25T01:09:44.114Z,40.99
2023-04-25T01:10:44.101Z,40.92
2023-04-25T01:11:44.106Z,40.91
2023-04-25T01:12:44.084Z,40.97
2023-04-25T01:13:44.131Z,40.95
2023-04-25T01:14:44.200Z,40.95
2023-04-25T01:15:44.242Z,40.95
2023-04-25T01:16:44.344Z,40.91
2023-04-25T01:17:44.379Z,40.93
2023-04-25T01:18:44.372Z,40.97
2023-04-25T01:19:44.423Z,40.93
2023-04-25T01:20:44.482Z,40.96
2023-04-25T01:21:44.560Z,40.97
2023-04-25T01:22:44.580Z,40.98
2023-04-25T01:23:44.641Z,40.98
2023-04-25T01:24:44.624Z,41.02
2023-04-25T01:25:44.622Z,40.99
2023-04-25T01:26:44.617Z,40.99
2023-04-25T01:27:44.614Z,41.00
2023-04-25T01:28:44.606Z,41.01
2023-04-25T01:29:44.619Z,41.04
2023-04-25T01:30:44.613Z,41.02
2023-04-25T01:31:44.672Z,41.03
2023-04-25T01:32:44.640Z,41.02
2023-04-25T01:33:44.573Z,41.03
2023-04-25T01:34:44.650Z,41.04
2023-04-25T01:35:44.665Z,41.03
2023-04-25T01:36:44.720Z,41.10
2023-04-25T01:37:44.762Z,41.09
2023-04-25T01:38:44.819Z,41.09
2023-04-25T01:39:44.881Z,41.13
2023-04-25T01:40:44.966Z,41.15
2023-04-25T01:41:45.008Z,41.18
2023-04-25T01:42:45.060Z,41.20
2023-04-25T01:43:45.174Z,41.20
2023-04-25T01:44:45.140Z,41.22
2023-04-25T01:45:45.284Z,41.31
2023-04-25T01:46:45.252Z,41.25
2023-04-25T01:47:45.320Z,41.31
2023-04-25T01:48:45.329Z,41.34
2023-04-25T01:49:45.378Z,41.26
2023-04-25T01:50:45.433Z,41.35
2023-04-25T01:51:45.491Z,41.35
2023-04-25T01:52:45.527Z,41.30
2023-04-25T01:53:45.592Z,41.34
2023-04-25T01:54:45.668Z,41.34
2023-04-25T01:55:45.677Z,41.35
2023-04-25T01:56:45.732Z,41.37
2023-04-25T01:57:46.616Z,41.35
2023-04-25T01:58:45.774Z,41.36
2023-04-25T01:59:45.765Z,41.34
2023-04-25T02:00:45.775Z,41.40
2023-04-25T02:01:45.813Z,41.38
2023-04-25T02:02:45.830Z,41.39
2023-04-25T02:03:45.856Z,41.40
2023-04-25T02:04:45.794Z,41.35
2023-04-25T02:05:45.757Z,41.37
2023-04-25T02:06:45.738Z,41.38
2023-04-25T02:07:45.742Z,41.34
2023-04-25T02:08:45.739Z,41.39
2023-04-25T02:09:46.621Z,41.40
2023-04-25T02:10:45.725Z,41.34
2023-04-25T02:11:45.731Z,41.40
2023-04-25T02:12:45.745Z,41.35
2023-04-25T02:13:45.720Z,41.39
2023-04-25T02:14:45.723Z,41.35
2023-04-25T02:15:46.733Z,41.42
2023-04-25T02:16:45.801Z,41.42
2023-04-25T02:17:45.720Z,41.43
2023-04-25T02:18:45.701Z,41.42
2023-04-25T02:19:45.696Z,41.41
2023-04-25T02:20:45.692Z,41.39
2023-04-25T02:21:45.686Z,41.38
2023-04-25T02:22:45.682Z,41.40
2023-04-25T02:23:45.684Z,41.39
2023-04-25T02:24:45.672Z,41.39
2023-04-25T02:25:45.665Z,41.39
2023-04-25T02:26:45.673Z,41.37
2023-04-25T02:27:45.679Z,41.42
2023-04-25T02:28:45.693Z,41.32
2023-04-25T02:29:45.684Z,41.32
2023-04-25T02:30:45.679Z,41.39
2023-04-25T02:31:45.783Z,41.34
2023-04-25T02:32:45.700Z,41.35
2023-04-25T02:33:45.676Z,41.37
2023-04-25T02:34:45.693Z,41.37
2023-04-25T02:35:45.674Z,41.40
2023-04-25T02:36:45.677Z,41.36
2023-04-25T02:37:45.683Z,41.37
2023-04-25T02:38:45.739Z,41.32
2023-04-25T02:39:45.815Z,41.37
2023-04-25T02:40:45.867Z,41.32
2023-04-25T02:41:45.861Z,41.41
2023-04-25T02:42:45.866Z,41.35
2023-04-25T02:43:45.862Z,41.35
2023-04-25T02:44:45.872Z,41.39
2023-04-25T02:45:45.868Z,41.39
2023-04-25T02:46:45.923Z,41.38
2023-04-25T02:47:45.955Z,41.37
2023-04-25T02:48:45.880Z,41.33
2023-04-25T02:49:45.864Z,41.32
2023-04-25T02:50:45.883Z,41.38
2023-04-25T02:51:45.916Z,41.37
2023-04-25T02:52:45.970Z,41.35
2023-04-25T02:53:45.959Z,41.36
2023-04-25T02:54:45.962Z,41.36
2023-04-25T02:55:45.958Z,41.33
2023-04-25T02:56:45.955Z,41.37
2023-04-25T02:57:45.965Z,41.37
2023-04-25T02:58:45.951Z,41.36
2023-04-25T02:59:45.945Z,41.35
2023-04-25T03:00:45.972Z,41.36
2023-04-25T03:01:45.968Z,41.36
2023-04-25T03:02:46.012Z,41.34
2023-04-25T03:03:46.050Z,41.37
2023-04-25T03:04:46.119Z,41.36
2023-04-25T03:05:46.096Z,41.37
2023-04-25T03:06:46.142Z,41.32
2023-04-25T03:07:46.178Z,41.34
2023-04-25T03:08:46.231Z,41.33
2023-04-25T03:09:46.271Z,41.37
2023-04-25T03:10:46.323Z,41.36
2023-04-25T03:11:46.388Z,41.36
2023-04-25T03:12:46.409Z,41.38
2023-04-25T03:13:46.458Z,41.37
2023-04-25T03:14:46.513Z,41.36
2023-04-25T03:15:46.559Z,41.36
2023-04-25T03:16:46.620Z,41.36
2023-04-25T03:17:46.691Z,41.33
2023-04-25T03:18:46.697Z,41.34
2023-04-25T03:19:46.774Z,41.32
2023-04-25T03:20:46.793Z,41.34
2023-04-25T03:21:46.853Z,41.34
2023-04-25T03:22:46.893Z,41.37
2023-04-25T03:23:46.926Z,41.29
2023-04-25T03:24:46.974Z,41.33
2023-04-25T03:25:47.023Z,41.36
2023-04-25T03:26:47.085Z,41.41
2023-04-25T03:27:47.139Z,41.36
2023-04-25T03:28:47.195Z,41.39
2023-04-25T03:29:47.239Z,41.34
2023-04-25T03:30:47.283Z,41.38
2023-04-25T03:31:47.376Z,41.32
2023-04-25T03:32:47.363Z,41.37
2023-04-25T03:33:47.511Z,41.34
2023-04-25T03:34:47.505Z,41.33
2023-04-25T03:35:47.552Z,41.35
2023-04-25T03:36:47.607Z,41.34
2023-04-25T03:37:47.658Z,41.30
2023-04-25T03:38:47.689Z,41.38
2023-04-25T03:39:47.743Z,41.39
2023-04-25T03:40:47.789Z,41.37
2023-04-25T03:41:47.825Z,41.39
2023-04-25T03:42:47.865Z,41.41
2023-04-25T03:43:48.027Z,41.35
2023-04-25T03:44:47.926Z,41.38
2023-04-25T03:45:48.003Z,41.37
2023-04-25T03:46:48.028Z,41.37
2023-04-25T03:47:48.135Z,41.42
2023-04-25T03:48:48.151Z,41.43
2023-04-25T03:49:48.192Z,41.39
2023-04-25T03:50:48.251Z,41.38
2023-04-25T03:51:48.246Z,41.35
2023-04-25T03:52:48.232Z,41.38
2023-04-25T03:53:48.330Z,41.39
2023-04-25T03:54:48.213Z,41.38
2023-04-25T03:55:48.201Z,41.38
2023-04-25T03:56:48.204Z,41.44
2023-04-25T03:57:48.177Z,41.41
2023-04-25T03:58:48.179Z,41.44
2023-04-25T03:59:48.172Z,41.40
2023-04-25T04:00:48.158Z,41.41
2023-04-25T04:01:48.211Z,41.43
2023-04-25T04:02:48.321Z,41.45
2023-04-25T04:03:48.481Z,41.46
2023-04-25T04:04:48.630Z,41.44
2023-04-25T04:05:48.482Z,41.44
2023-04-25T04:06:48.442Z,41.47
2023-04-25T04:07:48.466Z,41.43
2023-04-25T04:08:48.505Z,41.43
2023-04-25T04:09:48.568Z,41.42
2023-04-25T04:10:48.618Z,41.42
2023-04-25T04:11:48.659Z,41.47
2023-04-25T04:12:48.668Z,41.43
2023-04-25T04:13:49.039Z,41.43
2023-04-25T04:14:48.649Z,41.45
2023-04-25T04:15:48.645Z,41.47
2023-04-25T04:16:48.630Z,41.42
2023-04-25T04:17:48.652Z,41.49
2023-04-25T04:18:48.604Z,41.46
2023-04-25T04:19:48.589Z,41.44
2023-04-25T04:20:48.598Z,41.46
2023-04-25T04:21:48.587Z,41.47
2023-04-25T04:22:48.646Z,41.47
2023-04-25T04:23:48.804Z,41.50
2023-04-25T04:24:48.738Z,41.51
2023-04-25T04:25:48.834Z,41.51
2023-04-25T04:26:48.876Z,41.42
2023-04-25T04:27:48.895Z,41.47
2023-04-25T04:28:48.962Z,41.43
2023-04-25T04:29:48.984Z,41.45
2023-04-25T04:30:49.045Z,41.42
2023-04-25T04:31:49.111Z,41.46
2023-04-25T04:32:50.595Z,41.43
2023-04-25T04:33:49.447Z,41.48
2023-04-25T04:34:49.256Z,41.49
2023-04-25T04:35:49.316Z,41.45
2023-04-25T04:36:49.363Z,41.45
2023-04-25T04:37:49.389Z,41.43
2023-04-25T04:38:49.457Z,41.43
2023-04-25T04:39:49.523Z,41.42
2023-04-25T04:40:49.507Z,41.49
2023-04-25T04:41:49.526Z,41.41
2023-04-25T04:42:49.485Z,41.47
2023-04-25T04:43:49.630Z,41.48
2023-04-25T04:44:49.464Z,41.47
2023-04-25T04:45:49.460Z,41.52
2023-04-25T04:46:49.570Z,41.45
2023-04-25T04:47:50.130Z,41.49
2023-04-25T04:48:49.435Z,41.48
2023-04-25T04:49:49.491Z,41.44
2023-04-25T04:50:49.544Z,41.48
2023-04-25T04:51:49.612Z,41.48
2023-04-25T04:52:49.650Z,41.47
2023-04-25T04:53:50.847Z,41.48
2023-04-25T04:54:49.784Z,41.47
2023-04-25T04:55:49.810Z,41.48
2023-04-25T04:56:49.870Z,41.49
2023-04-25T04:57:49.973Z,41.51
2023-04-25T04:58:50.088Z,41.47
2023-04-25T04:59:50.041Z,41.51
2023-04-25T05:00:50.135Z,41.53
2023-04-25T05:01:50.165Z,41.51
2023-04-25T05:02:50.381Z,41.53
2023-04-25T05:03:50.917Z,41.47
2023-04-25T05:04:50.433Z,41.48
2023-04-25T05:05:50.397Z,41.47
2023-04-25T05:06:50.453Z,41.46
2023-04-25T05:07:50.518Z,41.48
2023-04-25T05:08:50.572Z,41.48
2023-04-25T05:09:50.634Z,41.54
2023-04-25T05:10:50.683Z,41.49
2023-04-25T05:11:50.748Z,41.54
2023-04-25T05:12:50.803Z,41.49
2023-04-25T05:13:51.026Z,41.49
2023-04-25T05:14:50.875Z,41.51
2023-04-25T05:15:50.855Z,41.43
2023-04-25T05:16:50.900Z,41.44
2023-04-25T05:17:50.889Z,41.44
2023-04-25T05:18:50.860Z,41.54
2023-04-25T05:19:50.904Z,41.56
2023-04-25T05:20:50.859Z,41.59
2023-04-25T05:21:50.852Z,41.70
2023-04-25T05:22:50.908Z,41.68
2023-04-25T05:23:51.089Z,41.83
2023-04-25T05:24:51.004Z,41.84
2023-04-25T05:25:52.012Z,41.64
2023-04-25T05:26:50.988Z,41.51
2023-04-25T05:27:51.001Z,41.37
2023-04-25T05:28:51.020Z,41.06
2023-04-25T05:29:51.002Z,40.82
2023-04-25T05:30:51.007Z,41.03
2023-04-25T05:31:51.069Z,41.21
2023-04-25T05:32:51.067Z,41.01
2023-04-25T05:33:51.296Z,41.15
2023-04-25T05:34:57.724Z,41.47
2023-04-25T05:35:51.046Z,41.83
2023-04-25T05:36:52.698Z,42.11
2023-04-25T05:37:51.042Z,42.46
2023-04-25T05:38:51.033Z,42.92
2023-04-25T05:39:51.030Z,43.16
2023-04-25T05:40:51.045Z,43.34
2023-04-25T05:41:51.028Z,43.81
2023-04-25T05:42:51.033Z,43.98
2023-04-25T05:43:51.494Z,44.25
2023-04-25T05:44:51.014Z,44.47
2023-04-25T05:45:51.057Z,44.74
2023-04-25T05:46:51.008Z,44.98
2023-04-25T05:47:51.071Z,45.17
2023-04-25T05:48:51.001Z,45.33
2023-04-25T05:49:51.000Z,45.47
2023-04-25T05:50:50.999Z,45.79
2023-04-25T05:51:50.993Z,45.79
2023-04-25T05:52:50.993Z,46.17
2023-04-25T05:53:51.232Z,46.40
2023-04-25T05:54:51.053Z,46.45
2023-04-25T05:55:52.719Z,46.79
2023-04-25T05:56:51.675Z,47.05
2023-04-25T05:57:51.689Z,47.20
2023-04-25T05:58:51.681Z,47.51
2023-04-25T05:59:52.182Z,47.80
2023-04-25T06:00:51.237Z,47.71
2023-04-25T06:01:51.223Z,48.08
2023-04-25T06:02:51.366Z,48.31
2023-04-25T06:03:51.552Z,48.63
2023-04-25T06:04:51.450Z,49.10
2023-04-25T06:05:51.336Z,48.87
2023-04-25T06:06:51.347Z,49.02
2023-04-25T06:07:51.373Z,49.33
2023-04-25T06:08:51.346Z,49.36
2023-04-25T06:09:52.197Z,49.73
2023-04-25T06:10:51.325Z,49.92
2023-04-25T06:11:51.320Z,50.25
2023-04-25T06:12:51.308Z,50.13
2023-04-25T06:13:51.500Z,50.27
2023-04-25T06:14:51.272Z,50.34
2023-04-25T06:15:51.778Z,50.52
2023-04-25T06:16:51.356Z,50.34
2023-04-25T06:17:51.362Z,50.15
2023-04-25T06:18:51.212Z,50.76
2023-04-25T06:19:51.184Z,50.69
2023-04-25T06:20:51.179Z,51.09
2023-04-25T06:21:51.151Z,51.31
2023-04-25T06:22:51.142Z,50.81
2023-04-25T06:23:51.306Z,50.58
2023-04-25T06:24:51.694Z,50.48
2023-04-25T06:25:51.080Z,50.21
2023-04-25T06:26:51.057Z,50.25
2023-04-25T06:27:51.041Z,50.11
2023-04-25T06:28:51.016Z,50.20
2023-04-25T06:29:51.003Z,50.30
2023-04-25T06:30:50.992Z,50.18
2023-04-25T06:31:51.229Z,50.16
2023-04-25T06:32:51.032Z,50.03
2023-04-25T06:33:51.206Z,49.93
2023-04-25T06:34:50.983Z,50.04
2023-04-25T06:35:51.059Z,50.06
2023-04-25T06:36:51.003Z,49.96
2023-04-25T06:37:51.040Z,49.95
2023-04-25T06:38:51.169Z,49.78
2023-04-25T06:39:51.015Z,49.77
2023-04-25T06:40:51.015Z,49.82
2023-04-25T06:41:51.028Z,49.93
2023-04-25T06:42:51.063Z,49.83
2023-04-25T06:43:53.209Z,49.67
2023-04-25T06:44:51.036Z,49.67
2023-04-25T06:45:51.073Z,49.57
2023-04-25T06:46:51.827Z,49.57
2023-04-25T06:47:51.133Z,49.55
2023-04-25T06:48:51.399Z,49.51
2023-04-25T06:49:51.141Z,49.59
2023-04-25T06:50:51.153Z,49.36
2023-04-25T06:51:51.181Z,49.40
2023-04-25T06:52:51.191Z,49.42
2023-04-25T06:53:51.234Z,49.34
2023-04-25T06:54:51.241Z,49.44
2023-04-25T06:55:51.271Z,49.42
2023-04-25T06:56:51.302Z,49.40
2023-04-25T06:57:51.310Z,49.46
2023-04-25T06:58:51.690Z,49.17
2023-04-25T06:59:51.340Z,49.19
2023-04-25T07:00:51.418Z,49.25
2023-04-25T07:01:51.327Z,49.04
2023-04-25T07:02:51.391Z,49.10
2023-04-25T07:03:51.435Z,49.09
2023-04-25T07:04:51.428Z,49.17
2023-04-25T07:05:51.284Z,49.11
2023-04-25T07:06:51.288Z,49.13
2023-04-25T07:07:51.275Z,48.99
2023-04-25T07:08:51.425Z,49.05
2023-04-25T07:09:51.263Z,49.10
2023-04-25T07:10:52.244Z,49.05
2023-04-25T07:11:51.231Z,49.01
2023-04-25T07:12:51.225Z,48.98
2023-04-25T07:13:51.320Z,49.08
2023-04-25T07:14:51.283Z,49.09
2023-04-25T07:15:51.314Z,49.10
2023-04-25T07:16:51.365Z,49.03
2023-04-25T07:17:51.441Z,49.17
2023-04-25T07:18:51.646Z,48.70
2023-04-25T07:19:51.437Z,48.37
2023-04-25T07:20:51.486Z,45.41
2023-04-25T07:21:54.069Z,43.50
2023-04-25T07:22:51.805Z,42.42
2023-04-25T07:23:51.820Z,43.33
2023-04-25T07:24:51.845Z,42.60
2023-04-25T07:25:51.858Z,42.28
2023-04-25T07:26:51.904Z,42.16
2023-04-25T07:27:51.895Z,42.22
2023-04-25T07:28:52.112Z,41.58
2023-04-25T07:29:51.914Z,41.56
2023-04-25T07:30:51.921Z,37.12
2023-04-25T07:31:51.954Z,39.47
2023-04-25T07:32:52.131Z,40.69
2023-04-25T07:33:51.969Z,40.22
2023-04-25T07:34:52.322Z,40.02
2023-04-25T07:35:51.998Z,40.22
2023-04-25T07:36:51.994Z,39.73
2023-04-25T07:37:52.013Z,39.94
2023-04-25T07:38:52.290Z,40.04
2023-04-25T07:39:52.023Z,40.02
2023-04-25T07:40:52.037Z,39.96
2023-04-25T07:41:54.480Z,39.62
2023-04-25T07:42:52.065Z,40.45
2023-04-25T07:43:53.728Z,39.78
2023-04-25T07:44:52.046Z,39.92
2023-04-25T07:45:52.094Z,39.83
2023-04-25T07:46:52.056Z,39.70
2023-04-25T07:47:52.094Z,38.88
2023-04-25T07:48:52.399Z,38.03
2023-04-25T07:49:52.059Z,38.92
2023-04-25T07:50:52.056Z,39.14
2023-04-25T07:51:53.057Z,38.79
2023-04-25T07:52:52.068Z,38.28
2023-04-25T07:53:52.075Z,37.95
2023-04-25T07:54:52.070Z,38.10
2023-04-25T07:55:52.130Z,37.85
2023-04-25T07:56:53.889Z,37.91
2023-04-25T07:57:52.723Z,37.59
2023-04-25T07:58:52.412Z,37.46
2023-04-25T07:59:52.105Z,36.16
2023-04-25T08:00:52.100Z,37.28
2023-04-25T08:01:52.118Z,37.11
2023-04-25T08:02:52.357Z,37.01
2023-04-25T08:03:52.244Z,37.01
2023-04-25T08:04:52.231Z,36.72
2023-04-25T08:05:52.309Z,36.77
2023-04-25T08:06:52.129Z,36.64
2023-04-25T08:07:53.769Z,36.48
2023-04-25T08:08:53.895Z,35.44
2023-04-25T08:09:52.157Z,36.35
2023-04-25T08:10:52.179Z,36.46
2023-04-25T08:11:52.156Z,36.03
2023-04-25T08:12:52.163Z,37.99
2023-04-25T08:13:52.177Z,39.36
2023-04-25T08:14:52.169Z,39.25
2023-04-25T08:15:52.209Z,37.63
2023-04-25T08:16:52.196Z,37.40
2023-04-25T08:17:52.230Z,38.09
2023-04-25T08:18:52.529Z,37.77
2023-04-25T08:19:52.216Z,37.42
2023-04-25T08:20:52.182Z,37.51
2023-04-25T08:21:52.176Z,37.59
2023-04-25T08:22:52.185Z,34.16
2023-04-25T08:23:52.236Z,37.15
2023-04-25T08:24:52.213Z,37.37
2023-04-25T08:25:52.227Z,36.82
2023-04-25T08:26:52.234Z,36.85
2023-04-25T08:27:52.249Z,36.57
2023-04-25T08:28:52.510Z,36.89
2023-04-25T08:29:52.758Z,37.03
2023-04-25T08:30:52.259Z,37.32
2023-04-25T08:31:57.255Z,37.52
2023-04-25T08:32:52.372Z,37.57
2023-04-25T08:33:52.283Z,37.59
2023-04-25T08:34:52.272Z,37.59
2023-04-25T08:35:52.273Z,37.64
2023-04-25T08:36:52.307Z,37.72
2023-04-25T08:37:52.268Z,37.77
2023-04-25T08:38:55.221Z,37.92
2023-04-25T08:39:52.263Z,38.22
2023-04-25T08:40:57.753Z,38.44
2023-04-25T08:41:52.368Z,38.78
2023-04-25T08:42:52.400Z,38.95
2023-04-25T08:43:52.458Z,39.24
2023-04-25T08:44:54.276Z,39.40
2023-04-25T08:45:52.505Z,39.72
2023-04-25T08:46:52.559Z,39.93
2023-04-25T08:47:52.610Z,40.10
2023-04-25T08:48:54.435Z,40.32
2023-04-25T08:49:52.548Z,40.40
2023-04-25T08:50:52.544Z,40.47
2023-04-25T08:51:52.545Z,40.82
2023-04-25T08:52:52.530Z,40.67
2023-04-25T08:53:54.388Z,40.94
2023-04-25T08:54:52.584Z,40.92
2023-04-25T08:55:52.794Z,41.06
2023-04-25T08:56:52.477Z,41.22
2023-04-25T08:57:52.466Z,41.36
2023-04-25T08:58:52.659Z,41.39
2023-04-25T08:59:52.444Z,41.51
2023-04-25T09:00:52.494Z,41.66
2023-04-25T09:01:52.434Z,41.85
2023-04-25T09:02:52.484Z,41.94
2023-04-25T09:03:52.560Z,42.11
2023-04-25T09:04:55.951Z,42.30
2023-04-25T09:05:52.383Z,42.32
2023-04-25T09:06:52.370Z,42.45
2023-04-25T09:07:52.347Z,42.88
2023-04-25T09:08:52.306Z,42.89
2023-04-25T09:09:52.291Z,42.85
2023-04-25T09:10:52.279Z,43.29
2023-04-25T09:11:52.266Z,43.45
2023-04-25T09:12:52.336Z,43.68
2023-04-25T09:13:52.438Z,43.75
2023-04-25T09:14:52.250Z,43.90
2023-04-25T09:15:52.224Z,43.90
2023-04-25T09:16:52.239Z,44.20
2023-04-25T09:17:52.194Z,44.35
2023-04-25T09:18:52.173Z,44.40
2023-04-25T09:19:52.164Z,43.06
2023-04-25T09:21:52.136Z,43.74
2023-04-25T09:22:52.751Z,43.81
2023-04-25T09:23:53.308Z,43.69
2023-04-25T09:24:52.218Z,43.10
2023-04-25T09:25:52.086Z,43.29
2023-04-25T09:26:52.066Z,43.40
2023-04-25T09:27:56.778Z,43.52
2023-04-25T09:28:52.037Z,43.62
2023-04-25T09:29:52.015Z,43.57
2023-04-25T09:30:51.992Z,43.79
2023-04-25T09:31:52.104Z,43.87
2023-04-25T09:32:52.022Z,44.03
2023-04-25T09:33:54.684Z,44.31
2023-04-25T09:34:51.960Z,44.33
2023-04-25T09:35:54.767Z,44.32
2023-04-25T09:36:51.892Z,44.40
2023-04-25T09:37:51.882Z,44.47
2023-04-25T09:38:51.855Z,44.64
2023-04-25T09:39:51.829Z,44.81
2023-04-25T09:40:51.801Z,44.97
2023-04-25T09:41:51.778Z,45.33
2023-04-25T09:42:52.753Z,45.59
2023-04-25T09:43:51.749Z,45.73
2023-04-25T09:44:51.720Z,45.68
2023-04-25T09:45:51.737Z,45.66
2023-04-25T09:46:51.691Z,45.69
2023-04-25T09:47:51.694Z,45.90
2023-04-25T09:48:51.657Z,45.99
2023-04-25T09:49:54.261Z,45.79
2023-04-25T09:50:51.606Z,46.22
2023-04-25T09:51:51.586Z,46.03
2023-04-25T09:52:51.571Z,46.19
2023-04-25T09:53:51.894Z,46.30
2023-04-25T09:54:52.585Z,46.35
2023-04-25T09:55:51.521Z,46.46
2023-04-25T09:56:52.201Z,46.74
2023-04-25T09:57:51.468Z,47.00
2023-04-25T09:58:51.454Z,46.94
2023-04-25T09:59:51.436Z,47.32
2023-04-25T10:00:51.393Z,47.41
2023-04-25T10:01:54.911Z,47.42
2023-04-25T10:02:51.443Z,47.73
2023-04-25T10:03:52.389Z,47.49
2023-04-25T10:04:51.314Z,47.68
2023-04-25T10:05:51.273Z,47.97
2023-04-25T10:06:51.251Z,48.12
2023-04-25T10:07:51.224Z,48.11
2023-04-25T10:08:51.204Z,48.00
2023-04-25T10:09:51.165Z,47.86
2023-04-25T10:10:51.138Z,47.76
2023-04-25T10:11:51.130Z,47.46
2023-04-25T10:12:51.125Z,47.46
2023-04-25T10:13:51.250Z,47.39
2023-04-25T10:14:51.087Z,47.16
2023-04-25T10:15:51.092Z,47.29
2023-04-25T10:16:51.004Z,47.23
2023-04-25T10:17:51.003Z,47.22
2023-04-25T10:18:50.946Z,47.18
2023-04-25T10:19:50.932Z,47.06
2023-04-25T10:20:52.239Z,47.25
2023-04-25T10:21:50.948Z,47.14
2023-04-25T10:22:50.869Z,47.11
2023-04-25T10:23:51.073Z,47.13
2023-04-25T10:24:50.823Z,47.09
2023-04-25T10:25:50.811Z,46.93
2023-04-25T10:26:50.785Z,46.98
2023-04-25T10:27:50.787Z,46.96
2023-04-25T10:28:50.751Z,46.90
2023-04-25T10:29:50.751Z,46.84
2023-04-25T10:30:50.821Z,46.76
2023-04-25T10:31:50.771Z,46.73
2023-04-25T10:32:50.677Z,46.74
2023-04-25T10:33:50.873Z,46.78
2023-04-25T10:34:51.648Z,46.79
2023-04-25T10:35:50.623Z,46.79
2023-04-25T10:36:50.605Z,46.61
2023-04-25T10:37:50.622Z,46.64
2023-04-25T10:38:50.598Z,46.65
2023-04-25T10:39:51.043Z,46.62
2023-04-25T10:40:50.535Z,46.50
2023-04-25T10:41:50.562Z,46.50
2023-04-25T10:42:50.497Z,46.52
2023-04-25T10:43:50.809Z,46.44
2023-04-25T10:44:50.461Z,46.45
2023-04-25T10:45:50.444Z,46.44
2023-04-25T10:46:50.459Z,46.41
2023-04-25T10:47:50.476Z,46.37
2023-04-25T10:48:50.367Z,46.34
2023-04-25T10:49:50.353Z,46.30
2023-04-25T10:50:50.334Z,46.30
2023-04-25T10:51:54.880Z,46.29
2023-04-25T10:52:51.311Z,46.22
2023-04-25T10:53:50.484Z,46.19
2023-04-25T10:54:50.260Z,46.18
2023-04-25T10:55:50.234Z,46.09
2023-04-25T10:56:50.211Z,46.14
2023-04-25T10:57:50.199Z,46.13
2023-04-25T10:58:52.009Z,46.16
2023-04-25T10:59:50.187Z,46.09
2023-04-25T11:01:50.437Z,46.21
2023-04-25T11:02:50.234Z,46.18
2023-04-25T11:03:50.313Z,46.23
2023-04-25T11:04:50.223Z,46.18
2023-04-25T11:05:57.920Z,46.13
2023-04-25T11:06:53.862Z,46.11
2023-04-25T11:08:00.034Z,46.08
2023-04-25T11:08:51.278Z,46.14
2023-04-25T11:09:50.044Z,46.18
2023-04-25T11:10:52.106Z,46.24
2023-04-25T11:11:49.965Z,46.12
2023-04-25T11:12:49.945Z,46.14
2023-04-25T11:13:50.789Z,46.14
2023-04-25T11:14:49.956Z,46.15
2023-04-25T11:15:55.035Z,46.08
2023-04-25T11:16:50.920Z,46.17
2023-04-25T11:17:49.942Z,46.09
2023-04-25T11:18:50.064Z,46.17
2023-04-25T11:19:49.899Z,46.23
2023-04-25T11:20:49.818Z,46.12
2023-04-25T11:21:49.793Z,46.09
2023-04-25T11:22:50.942Z,46.10
2023-04-25T11:23:50.125Z,46.15
2023-04-25T11:24:49.820Z,46.13
2023-04-25T11:25:49.807Z,46.15
2023-04-25T11:26:49.813Z,46.21
2023-04-25T11:27:50.742Z,46.12
2023-04-25T11:28:49.810Z,46.17
2023-04-25T11:29:49.810Z,46.19
2023-04-25T11:30:49.837Z,46.12
2023-04-25T11:31:49.853Z,45.99
2023-04-25T11:32:49.866Z,46.08
2023-04-25T11:33:49.981Z,46.12
2023-04-25T11:34:49.841Z,46.15
2023-04-25T11:35:49.839Z,46.16
2023-04-25T11:36:49.848Z,46.16
2023-04-25T11:37:49.846Z,46.07
2023-04-25T11:38:49.846Z,46.10
2023-04-25T11:39:49.885Z,46.08
2023-04-25T11:40:49.870Z,46.04
2023-04-25T11:41:49.889Z,46.11
2023-04-25T11:42:49.927Z,45.95
2023-04-25T11:43:49.914Z,45.87
2023-04-25T11:44:49.908Z,46.05
2023-04-25T11:45:49.965Z,46.03
2023-04-25T11:46:49.947Z,46.03
2023-04-25T11:47:50.174Z,46.04
2023-04-25T11:48:50.063Z,46.08
2023-04-25T11:49:49.921Z,45.97
2023-04-25T11:50:49.920Z,45.77
2023-04-25T11:51:49.921Z,45.84
2023-04-25T11:52:49.928Z,45.89
2023-04-25T11:53:49.926Z,45.81
2023-04-25T11:54:49.933Z,45.83
2023-04-25T11:55:51.343Z,45.84
2023-04-25T11:56:49.933Z,45.84
2023-04-25T11:57:49.947Z,45.81
2023-04-25T11:58:49.953Z,45.85
2023-04-25T11:59:49.961Z,45.85
2023-04-25T12:00:50.555Z,45.87
2023-04-25T12:01:49.975Z,45.87
2023-04-25T12:02:50.034Z,45.80
2023-04-25T12:03:50.133Z,45.76
2023-04-25T12:04:50.142Z,45.80
2023-04-25T12:05:50.275Z,45.65
2023-04-25T12:06:50.069Z,45.73
2023-04-25T12:07:50.023Z,45.69
2023-04-25T12:08:50.252Z,45.63
2023-04-25T12:09:50.006Z,45.59
2023-04-25T12:10:50.025Z,45.62
2023-04-25T12:11:50.028Z,45.69
2023-04-25T12:12:50.040Z,45.69
2023-04-25T12:13:50.047Z,45.72
2023-04-25T12:14:50.056Z,45.65
2023-04-25T12:15:50.129Z,45.56
2023-04-25T12:16:50.060Z,45.44
2023-04-25T12:17:50.096Z,45.46
2023-04-25T12:18:50.298Z,45.51
2023-04-25T12:19:50.090Z,45.44
2023-04-25T12:20:50.128Z,45.43
2023-04-25T12:21:57.944Z,45.47
2023-04-25T12:22:51.075Z,45.45
2023-04-25T12:23:50.065Z,45.53
2023-04-25T12:24:50.050Z,45.45
2023-04-25T12:25:50.037Z,45.47
2023-04-25T12:26:50.019Z,45.36
2023-04-25T12:27:50.010Z,45.45
2023-04-25T12:28:50.157Z,45.44
2023-04-25T12:29:50.164Z,45.38
2023-04-25T12:30:49.959Z,45.43
2023-04-25T12:31:50.108Z,45.38
2023-04-25T12:32:49.993Z,45.23
2023-04-25T12:33:49.938Z,45.15
2023-04-25T12:34:50.980Z,45.35
2023-04-25T12:35:49.902Z,45.25
2023-04-25T12:36:49.915Z,45.24
2023-04-25T12:37:49.906Z,45.23
2023-04-25T12:38:50.000Z,45.19
2023-04-25T12:39:49.909Z,45.22
2023-04-25T12:40:49.864Z,45.14
2023-04-25T12:41:49.916Z,45.21
2023-04-25T12:42:49.852Z,45.22
2023-04-25T12:43:49.852Z,45.17
2023-04-25T12:44:49.829Z,45.20
2023-04-25T12:45:49.832Z,45.27
2023-04-25T12:46:49.855Z,45.28
2023-04-25T12:47:49.875Z,45.22
2023-04-25T12:48:49.978Z,45.23
2023-04-25T12:49:49.806Z,45.23
2023-04-25T12:50:49.795Z,45.22
2023-04-25T12:51:49.772Z,45.22
2023-04-25T12:52:49.759Z,45.27
2023-04-25T12:53:49.757Z,45.27
2023-04-25T12:54:49.762Z,45.18